createdAt,value
2022-08-27T00:04:55.437Z,18.73
2022-08-27T00:09:51.699Z,23.60
2022-08-27T00:14:48.044Z,22.77
2022-08-27T00:19:45.583Z,15.30
2022-08-27T00:24:48.682Z,21.60
2022-08-27T00:29:45.776Z,23.92
2022-08-27T00:34:42.072Z,25.48
2022-08-27T00:39:38.300Z,28.58
2022-08-27T00:44:34.767Z,24.88
2022-08-27T00:49:38.400Z,22.63
2022-08-27T00:54:34.662Z,19.33
2022-08-27T00:59:32.680Z,20.05
2022-08-27T01:04:30.138Z,20.40
2022-08-27T01:09:26.906Z,21.52
2022-08-27T01:14:23.573Z,24.48
2022-08-27T01:19:29.092Z,25.48
2022-08-27T01:24:40.313Z,22.02
2022-08-27T01:29:37.095Z,23.60
2022-08-27T01:34:33.456Z,27.15
2022-08-27T01:39:29.717Z,18.38
2022-08-27T01:44:26.736Z,22.40
2022-08-27T01:49:23.030Z,22.95
2022-08-27T01:54:19.460Z,23.17
2022-08-27T01:59:15.753Z,24.17
2022-08-27T02:04:12.180Z,25.77
2022-08-27T02:09:08.828Z,23.35
2022-08-27T02:14:11.722Z,28.60
2022-08-27T02:19:09.970Z,28.83
2022-08-27T02:24:07.250Z,25.92
2022-08-27T02:29:04.152Z,27.27
2022-08-27T02:34:00.979Z,25.08
2022-08-27T02:38:57.308Z,22.02
2022-08-27T02:43:53.559Z,26.45
2022-08-27T02:48:49.915Z,29.35
2022-08-27T02:53:46.280Z,29.92
2022-08-27T02:58:42.736Z,25.58
2022-08-27T03:03:38.971Z,19.65
2022-08-27T03:08:53.047Z,26.02
2022-08-27T03:13:50.240Z,25.20
2022-08-27T03:18:46.892Z,23.02
2022-08-27T03:23:43.147Z,29.30
2022-08-27T03:28:39.454Z,22.00
2022-08-27T03:33:37.477Z,25.25
2022-08-27T03:38:34.289Z,20.88
2022-08-27T03:43:30.631Z,23.70
2022-08-27T03:48:27.533Z,23.15
2022-08-27T03:53:23.790Z,22.08
2022-08-27T03:58:20.176Z,20.90
2022-08-27T04:03:16.507Z,26.25
2022-08-27T04:08:13.262Z,29.92
2022-08-27T04:13:09.625Z,25.10
2022-08-27T04:18:05.942Z,22.75
2022-08-27T04:23:02.283Z,25.80
2022-08-27T04:27:58.580Z,23.60
2022-08-27T04:32:54.839Z,23.00
2022-08-27T04:37:51.276Z,19.65
2022-08-27T04:42:47.611Z,22.20
2022-08-27T04:47:43.999Z,20.88
2022-08-27T04:52:41.201Z,29.52
2022-08-27T04:57:37.980Z,23.80
2022-08-27T05:02:34.361Z,21.45
2022-08-27T05:07:30.668Z,20.27
2022-08-27T05:12:36.568Z,28.77
2022-08-27T05:17:36.029Z,18.15
2022-08-27T05:22:37.476Z,18.88
2022-08-27T05:27:36.631Z,20.40
2022-08-27T05:32:34.135Z,21.75
2022-08-27T05:37:32.960Z,23.75
2022-08-27T05:42:35.967Z,22.70
2022-08-27T05:47:37.452Z,21.65
2022-08-27T05:52:41.089Z,19.35
2022-08-27T05:57:40.011Z,19.70
2022-08-27T06:02:39.644Z,28.05
2022-08-27T06:07:41.812Z,25.73
2022-08-27T06:12:48.164Z,25.33
2022-08-27T06:17:46.506Z,22.52
2022-08-27T06:22:45.591Z,22.98
2022-08-27T06:27:55.316Z,22.67
2022-08-27T06:32:54.682Z,24.02
2022-08-27T06:37:53.379Z,23.10
2022-08-27T06:42:57.040Z,21.27
2022-08-27T06:47:56.137Z,26.10
2022-08-27T06:52:57.993Z,18.30
2022-08-27T07:03:14.646Z,22.35
2022-08-27T07:08:15.257Z,20.25
2022-08-27T07:13:14.508Z,19.90
2022-08-27T07:18:15.578Z,20.17
2022-08-27T07:23:15.154Z,22.38
2022-08-27T07:28:32.263Z,25.38
2022-08-27T07:33:34.207Z,16.88
2022-08-27T07:38:34.586Z,19.98
2022-08-27T07:43:56.316Z,25.30
2022-08-27T07:48:56.152Z,18.95
2022-08-27T07:53:55.575Z,17.20
2022-08-27T07:59:13.173Z,21.00
2022-08-27T08:04:10.092Z,18.33
2022-08-27T08:09:16.376Z,14.15
2022-08-27T08:14:19.070Z,16.85
2022-08-27T08:19:18.478Z,14.98
2022-08-27T08:24:18.424Z,23.20
2022-08-27T08:29:18.193Z,13.80
2022-08-27T08:34:19.834Z,17.92
2022-08-27T08:39:18.695Z,15.40
2022-08-27T08:44:34.078Z,16.02
2022-08-27T08:49:37.945Z,15.20
2022-08-27T08:54:35.528Z,19.23
2022-08-27T08:59:48.969Z,18.40
2022-08-27T09:04:50.796Z,14.95
2022-08-27T09:09:57.061Z,20.65
2022-08-27T09:14:59.646Z,19.58
2022-08-27T09:20:07.843Z,13.45
2022-08-27T09:25:21.256Z,14.38
2022-08-27T09:30:25.487Z,14.50
2022-08-27T09:35:39.097Z,12.65
2022-08-27T09:40:44.536Z,13.75
2022-08-27T09:46:02.361Z,21.10
2022-08-27T09:51:03.610Z,12.15
2022-08-27T09:56:04.450Z,14.70
2022-08-27T10:01:03.817Z,16.63
2022-08-27T10:06:12.457Z,14.75
2022-08-27T10:11:19.634Z,21.40
2022-08-27T10:16:29.774Z,15.93
2022-08-27T10:21:37.086Z,16.70
2022-08-27T10:26:39.775Z,16.65
2022-08-27T10:32:07.646Z,20.25
2022-08-27T10:37:07.488Z,12.02
2022-08-27T10:42:21.095Z,13.50
2022-08-27T10:47:37.614Z,15.48
2022-08-27T10:52:39.780Z,12.35
2022-08-27T10:58:00.974Z,16.65
2022-08-27T11:03:10.762Z,15.45
2022-08-27T11:08:33.650Z,13.07
2022-08-27T11:13:37.964Z,12.63
2022-08-27T11:18:46.626Z,14.00
2022-08-27T11:23:47.911Z,13.18
2022-08-27T11:28:51.216Z,12.32
2022-08-27T11:33:53.746Z,9.25
2022-08-27T11:38:55.267Z,8.63
2022-08-27T11:43:52.897Z,11.77
2022-08-27T11:49:06.303Z,12.10
2022-08-27T11:54:08.362Z,11.70
2022-08-27T11:59:23.911Z,11.32
2022-08-27T12:04:33.173Z,11.95
2022-08-27T12:09:49.120Z,16.35
2022-08-27T12:15:15.502Z,10.95
2022-08-27T12:20:32.847Z,10.23
2022-08-27T12:25:32.817Z,14.65
2022-08-27T12:30:31.244Z,8.23
2022-08-27T12:35:46.311Z,13.40
2022-08-27T12:40:52.534Z,11.23
2022-08-27T12:45:57.532Z,8.85
2022-08-27T12:50:56.279Z,11.63
2022-08-27T12:55:52.822Z,9.68
2022-08-27T13:00:59.140Z,13.05
2022-08-27T13:06:01.595Z,11.10
2022-08-27T13:11:20.249Z,12.90
2022-08-27T13:16:30.721Z,12.38
2022-08-27T13:21:30.580Z,9.93
2022-08-27T13:26:34.020Z,9.88
2022-08-27T13:31:35.512Z,11.77
2022-08-27T13:36:50.440Z,11.93
2022-08-27T13:41:53.131Z,10.73
2022-08-27T13:47:08.807Z,12.00
2022-08-27T13:52:05.634Z,12.50
2022-08-27T13:57:10.644Z,10.40
2022-08-27T14:02:19.805Z,13.80
2022-08-27T14:07:23.760Z,10.70
2022-08-27T14:12:32.681Z,8.90
2022-08-27T14:17:41.088Z,10.88
2022-08-27T14:22:39.738Z,9.15
2022-08-27T14:27:40.654Z,8.65
2022-08-27T14:32:57.102Z,9.88
2022-08-27T14:37:57.994Z,10.07
2022-08-27T14:42:55.711Z,8.48
2022-08-27T14:47:54.833Z,9.43
2022-08-27T14:52:59.066Z,11.95
2022-08-27T14:58:05.202Z,12.45
2022-08-27T15:03:07.552Z,8.07
2022-08-27T15:08:06.801Z,12.32
2022-08-27T15:13:13.379Z,8.52
2022-08-27T15:18:21.066Z,11.38
2022-08-27T15:23:18.160Z,8.05
2022-08-27T15:28:22.634Z,10.55
2022-08-27T15:33:28.533Z,9.88
2022-08-27T15:38:35.549Z,12.82
2022-08-27T15:43:43.374Z,11.50
2022-08-27T15:48:48.212Z,9.85
2022-08-27T15:53:50.508Z,10.43
2022-08-27T15:58:49.054Z,10.07
2022-08-27T16:03:46.272Z,10.52
2022-08-27T16:08:44.513Z,12.43
2022-08-27T16:13:42.244Z,10.73
2022-08-27T16:18:48.898Z,12.18
2022-08-27T16:23:50.911Z,11.00
2022-08-27T16:29:24.516Z,12.93
2022-08-27T16:34:44.368Z,11.70
2022-08-27T16:39:43.968Z,10.77
2022-08-27T16:44:40.582Z,14.05
2022-08-27T16:49:58.603Z,10.80
2022-08-27T16:55:05.919Z,10.35
2022-08-27T17:00:15.443Z,11.00
2022-08-27T17:05:33.955Z,10.02
2022-08-27T17:10:51.084Z,10.30
2022-08-27T17:15:52.759Z,12.10
2022-08-27T17:25:56.505Z,15.00
2022-08-27T17:30:57.115Z,13.93
2022-08-27T17:35:56.977Z,17.80
2022-08-27T17:40:57.919Z,12.90
2022-08-27T17:45:57.906Z,11.75
2022-08-27T17:51:05.165Z,15.95
2022-08-27T17:56:01.736Z,14.60
2022-08-27T18:01:00.731Z,12.00
2022-08-27T18:05:58.718Z,18.73
2022-08-27T18:11:11.766Z,18.13
2022-08-27T18:16:14.830Z,7.97
2022-08-27T18:21:13.356Z,10.60
2022-08-27T18:26:24.543Z,12.43
2022-08-27T18:31:28.451Z,11.05
2022-08-27T18:36:32.755Z,18.15
2022-08-27T18:41:35.415Z,14.73
2022-08-27T18:46:35.038Z,15.95
2022-08-27T18:51:37.023Z,11.57
2022-08-27T18:56:38.299Z,14.68
2022-08-27T19:01:41.290Z,11.57
2022-08-27T19:06:46.796Z,11.52
2022-08-27T19:11:46.224Z,12.48
2022-08-27T19:16:44.877Z,11.40
2022-08-27T19:21:50.679Z,14.95
2022-08-27T19:26:49.286Z,18.42
2022-08-27T19:31:48.175Z,11.80
2022-08-27T19:36:47.137Z,16.48
2022-08-27T19:41:48.121Z,13.20
2022-08-27T19:46:45.320Z,14.40
2022-08-27T19:51:44.661Z,9.35
2022-08-27T19:56:44.112Z,14.38
2022-08-27T20:01:41.208Z,13.93
2022-08-27T20:06:42.161Z,12.25
2022-08-27T20:11:44.612Z,11.95
2022-08-27T20:16:42.533Z,8.90
2022-08-27T20:21:45.545Z,15.73
2022-08-27T20:26:44.881Z,14.73
2022-08-27T20:31:42.542Z,11.27
2022-08-27T20:36:52.604Z,14.15
2022-08-27T20:41:59.503Z,14.70
2022-08-27T20:47:00.039Z,16.90
2022-08-27T20:52:03.117Z,14.80
2022-08-27T20:57:04.540Z,14.90
2022-08-27T21:02:07.244Z,15.73
2022-08-27T21:07:07.373Z,14.15
2022-08-27T21:12:12.508Z,15.07
2022-08-27T21:17:19.369Z,12.40
2022-08-27T21:22:16.063Z,13.80
2022-08-27T21:27:20.037Z,12.15
2022-08-27T21:32:22.193Z,12.57
2022-08-27T21:37:24.171Z,14.32
2022-08-27T21:42:24.543Z,12.13
2022-08-27T21:47:25.023Z,13.30
2022-08-27T21:52:25.421Z,15.32
2022-08-27T21:57:26.080Z,18.23
2022-08-27T22:02:42.705Z,14.77
2022-08-27T22:07:50.893Z,15.02
2022-08-27T22:12:53.049Z,12.63
2022-08-27T22:17:59.452Z,14.55
2022-08-27T22:23:04.129Z,15.00
2022-08-27T22:28:08.682Z,14.63
2022-08-27T22:33:06.621Z,14.70
2022-08-27T22:38:06.833Z,12.32
2022-08-27T22:43:21.193Z,14.35
2022-08-27T22:48:21.967Z,17.05
2022-08-27T22:53:28.269Z,15.60
2022-08-27T22:58:30.323Z,18.02
2022-08-27T23:08:31.997Z,12.02
2022-08-27T23:13:31.357Z,13.20
2022-08-27T23:18:28.077Z,14.57
2022-08-27T23:23:30.667Z,16.27
2022-08-27T23:28:33.709Z,14.75
2022-08-27T23:33:32.481Z,12.02
2022-08-27T23:38:29.634Z,18.45
2022-08-27T23:43:28.759Z,13.95
2022-08-27T23:48:25.116Z,9.18
2022-08-27T23:53:21.369Z,9.65
2022-08-27T23:58:17.654Z,11.98
